Time;durP1;ratioP1;P1;durP2;ratioP2;P2;SDS_P1;SDS_P2;PMS_P1;PMS_P2;Temp;Humidity;BMP_temperature;BMP_pressure;BME280_temperature;BME280_humidity;BME280_pressure;Samples;Min_cycle;Max_cycle;Signal;HPM_P1;HPM_P2
2021/12/04 00:01:42;;;;;;;1.40;0.68;;;14.30;86.10;;;;;;5050921;28;20049;-65
2021/12/04 00:04:09;;;;;;;0.70;0.60;;;14.30;86.00;;;;;;5051653;28;20041;-65
2021/12/04 00:06:38;;;;;;;0.80;0.60;;;14.30;86.00;;;;;;5051663;28;20128;-65
2021/12/04 00:09:05;;;;;;;1.10;0.60;;;14.30;86.00;;;;;;5051526;28;20045;-65
2021/12/04 00:11:31;;;;;;;1.05;0.90;;;14.30;86.00;;;;;;5051511;28;20049;-65
2021/12/04 00:13:58;;;;;;;0.90;0.80;;;14.30;86.00;;;;;;5051398;28;20174;-65
2021/12/04 00:16:24;;;;;;;0.60;0.60;;;14.30;86.60;;;;;;5051278;28;20087;-65
2021/12/04 00:18:51;;;;;;;0.68;0.68;;;14.30;86.10;;;;;;5051543;28;20047;-65
2021/12/04 00:21:17;;;;;;;0.80;0.60;;;14.30;86.10;;;;;;5051379;28;20094;-65
2021/12/04 00:23:44;;;;;;;1.33;0.80;;;14.20;86.00;;;;;;5051360;28;20050;-64
2021/12/04 00:26:10;;;;;;;0.93;0.63;;;14.30;86.00;;;;;;5050964;28;20083;-65
2021/12/04 00:28:37;;;;;;;1.05;0.60;;;14.30;86.00;;;;;;5050953;28;20088;-65
2021/12/04 00:31:07;;;;;;;0.70;0.60;;;14.20;86.10;;;;;;5051012;28;20058;-65
2021/12/04 00:33:35;;;;;;;1.50;0.80;;;14.20;86.10;;;;;;5051569;28;20084;-65
2021/12/04 00:36:04;;;;;;;0.60;0.50;;;14.20;86.10;;;;;;5051412;28;20478;-65
2021/12/04 00:49:38;;;;;;;2.30;0.90;;;14.20;86.20;;;;;;4989483;28;20090;-64
2021/12/04 00:52:05;;;;;;;1.00;0.70;;;14.20;86.30;;;;;;5036168;28;20072;-65
2021/12/04 00:54:31;;;;;;;1.17;0.80;;;14.20;86.20;;;;;;5051128;28;20573;-64
2021/12/04 00:56:58;;;;;;;0.85;0.60;;;14.10;86.20;;;;;;5050798;28;20144;-65
2021/12/04 00:59:26;;;;;;;0.90;0.57;;;14.20;86.30;;;;;;5031142;28;20060;-65
2021/12/04 01:01:52;;;;;;;0.93;0.75;;;14.20;86.30;;;;;;5030846;28;20077;-64
2021/12/04 01:04:19;;;;;;;0.80;0.50;;;14.10;86.20;;;;;;5031008;28;20128;-65
2021/12/04 01:06:45;;;;;;;0.80;0.80;;;14.10;86.20;;;;;;5030936;28;20045;-64
2021/12/04 01:09:12;;;;;;;0.90;0.60;;;14.10;86.20;;;;;;5031327;28;20053;-65
2021/12/04 01:11:38;;;;;;;1.33;0.70;;;14.10;86.30;;;;;;5031195;28;20041;-65
2021/12/04 01:14:05;;;;;;;0.65;0.65;;;14.10;86.30;;;;;;5032608;28;20688;-65
2021/12/04 01:16:31;;;;;;;1.25;0.80;;;14.10;86.30;;;;;;5034644;28;20513;-65
2021/12/04 01:18:57;;;;;;;1.33;0.80;;;14.10;86.30;;;;;;5034466;28;20140;-65
2021/12/04 01:21:24;;;;;;;0.90;0.70;;;14.10;86.30;;;;;;5034555;28;20521;-65
2021/12/04 01:23:50;;;;;;;0.85;0.68;;;14.10;86.30;;;;;;5034749;28;20124;-64
2021/12/04 01:26:17;;;;;;;0.98;0.70;;;14.10;86.30;;;;;;5034647;28;20049;-65
2021/12/04 01:28:43;;;;;;;0.90;0.70;;;14.10;86.40;;;;;;5034549;28;20052;-64
2021/12/04 01:31:10;;;;;;;1.67;0.80;;;14.10;87.00;;;;;;5034079;28;20128;-64
2021/12/04 01:33:36;;;;;;;1.15;0.70;;;14.10;86.50;;;;;;5034267;28;20387;-65
2021/12/04 01:36:03;;;;;;;0.77;0.70;;;14.00;86.40;;;;;;5034575;28;20229;-65
2021/12/04 01:38:29;;;;;;;0.90;0.77;;;14.00;86.40;;;;;;5034385;28;20055;-65
2021/12/04 01:40:56;;;;;;;1.40;0.73;;;14.10;86.40;;;;;;5034320;28;20048;-65
2021/12/04 01:43:22;;;;;;;0.80;0.65;;;14.00;86.50;;;;;;5034141;28;20557;-65
2021/12/04 01:45:49;;;;;;;0.75;0.73;;;14.00;86.60;;;;;;5034184;28;20124;-65
2021/12/04 01:48:15;;;;;;;0.70;0.60;;;14.00;86.50;;;;;;5034296;28;20056;-65
2021/12/04 01:50:41;;;;;;;0.82;0.68;;;14.00;86.50;;;;;;5034233;28;20133;-65
2021/12/04 01:53:08;;;;;;;0.70;0.70;;;14.00;86.40;;;;;;5034148;28;20545;-65
2021/12/04 01:55:34;;;;;;;1.35;0.90;;;14.00;86.40;;;;;;5034202;28;20045;-64
2021/12/04 01:58:01;;;;;;;0.90;0.70;;;14.00;86.50;;;;;;5053837;28;20113;-65
2021/12/04 02:00:28;;;;;;;0.70;0.63;;;14.00;86.50;;;;;;5053615;28;20103;-65
2021/12/04 02:02:54;;;;;;;1.33;0.60;;;14.00;86.70;;;;;;5053831;28;20490;-65
2021/12/04 02:05:20;;;;;;;0.63;0.63;;;14.00;86.60;;;;;;5054044;28;20055;-65
2021/12/04 02:07:47;;;;;;;1.00;0.80;;;14.00;86.70;;;;;;5053683;28;20041;-65
2021/12/04 02:10:13;;;;;;;1.23;0.70;;;14.00;86.70;;;;;;5053583;28;20059;-65
2021/12/04 02:12:40;;;;;;;0.90;0.70;;;14.00;86.70;;;;;;5053433;28;20136;-64
2021/12/04 02:15:07;;;;;;;1.05;0.82;;;14.00;86.70;;;;;;5053403;28;20080;-65
2021/12/04 02:17:33;;;;;;;1.00;0.80;;;14.00;86.50;;;;;;5053629;28;20405;-65
2021/12/04 02:20:00;;;;;;;1.20;0.77;;;14.00;86.60;;;;;;5053421;28;20107;-65
2021/12/04 02:22:26;;;;;;;1.00;0.77;;;14.00;86.60;;;;;;5053561;28;20136;-65
2021/12/04 02:24:53;;;;;;;1.70;0.60;;;14.00;86.80;;;;;;5053589;28;20049;-65
2021/12/04 02:27:19;;;;;;;1.27;0.80;;;13.90;86.70;;;;;;5052868;28;20060;-65
2021/12/04 02:29:48;;;;;;;1.00;0.70;;;13.90;86.70;;;;;;5052901;28;20055;-65
2021/12/04 02:32:14;;;;;;;1.17;0.80;;;13.90;86.70;;;;;;5053384;28;20103;-65
2021/12/04 02:34:41;;;;;;;0.85;0.70;;;13.90;86.70;;;;;;5053263;28;20045;-65
2021/12/04 02:37:07;;;;;;;1.15;0.70;;;13.90;86.60;;;;;;5053186;28;20060;-65
2021/12/04 02:39:36;;;;;;;1.00;0.73;;;13.90;86.70;;;;;;5052955;28;20049;-65
2021/12/04 02:42:02;;;;;;;1.10;0.63;;;13.90;86.60;;;;;;5052993;28;20099;-64
2021/12/04 02:44:28;;;;;;;1.05;0.80;;;13.90;86.60;;;;;;5053357;28;20141;-64
2021/12/04 02:46:55;;;;;;;0.73;0.60;;;13.90;86.60;;;;;;5053135;28;20052;-65
2021/12/04 02:49:21;;;;;;;1.25;0.82;;;13.90;87.20;;;;;;5052754;28;20574;-65
2021/12/04 02:51:48;;;;;;;1.50;0.70;;;13.90;86.70;;;;;;5052855;28;20299;-65
2021/12/04 02:54:14;;;;;;;0.93;0.70;;;13.90;86.70;;;;;;5051593;28;20055;-65
2021/12/04 02:56:41;;;;;;;1.27;0.70;;;13.90;86.60;;;;;;5032758;28;20081;-64
2021/12/04 02:59:07;;;;;;;1.10;0.80;;;13.90;86.60;;;;;;5033031;28;20068;-65
2021/12/04 03:01:34;;;;;;;1.13;0.77;;;13.90;86.70;;;;;;5032653;28;20445;-64
2021/12/04 03:04:01;;;;;;;0.95;0.65;;;13.80;86.80;;;;;;5032743;28;20509;-64
2021/12/04 03:06:27;;;;;;;1.15;0.70;;;13.80;86.80;;;;;;5032697;28;20053;-65
2021/12/04 03:08:54;;;;;;;1.15;0.75;;;13.80;86.80;;;;;;5032410;28;20461;-65
2021/12/04 03:11:20;;;;;;;0.90;0.68;;;13.80;86.70;;;;;;5032362;28;20052;-65
2021/12/04 03:13:46;;;;;;;0.80;0.70;;;13.80;87.30;;;;;;5032707;28;20132;-65
2021/12/04 03:16:13;;;;;;;1.23;0.85;;;13.80;86.70;;;;;;5032434;28;20136;-65
2021/12/04 03:18:39;;;;;;;1.75;0.75;;;13.80;86.70;;;;;;5032444;28;20512;-65
2021/12/04 03:21:06;;;;;;;1.10;0.90;;;13.80;86.60;;;;;;5032502;28;20049;-64
2021/12/04 03:23:40;;;;;;;0.90;0.70;;;13.80;86.70;;;;;;5032266;28;20049;-64
2021/12/04 03:26:09;;;;;;;1.20;0.63;;;13.80;86.60;;;;;;5032115;28;20053;-65
2021/12/04 03:28:36;;;;;;;1.08;0.77;;;13.80;86.80;;;;;;5032103;28;20387;-65
2021/12/04 03:31:04;;;;;;;0.93;0.77;;;13.80;86.90;;;;;;5031958;28;20148;-65
2021/12/04 03:41:54;;;;;;;0.95;0.80;;;13.80;86.90;;;;;;5031964;28;20136;-65
2021/12/04 03:44:21;;;;;;;1.10;1.00;;;13.80;86.90;;;;;;5031767;28;20050;-65
2021/12/04 03:46:48;;;;;;;0.93;0.77;;;13.70;87.00;;;;;;5031711;28;20045;-64
2021/12/04 03:49:14;;;;;;;1.20;0.90;;;13.70;86.90;;;;;;5031854;28;20513;-65
2021/12/04 03:51:41;;;;;;;1.33;0.80;;;13.70;86.90;;;;;;5032213;28;20048;-64
2021/12/04 03:54:07;;;;;;;0.93;0.68;;;13.70;86.90;;;;;;5043269;28;20047;-65
2021/12/04 03:56:36;;;;;;;1.25;0.90;;;13.70;86.90;;;;;;5051498;28;20053;-64
2021/12/04 03:59:02;;;;;;;0.93;0.80;;;13.70;86.90;;;;;;5052065;28;20049;-64
2021/12/04 04:01:29;;;;;;;1.10;0.80;;;13.70;86.90;;;;;;5051487;28;20052;-65
2021/12/04 04:03:55;;;;;;;1.13;0.80;;;13.70;86.90;;;;;;5051587;28;20048;-65
2021/12/04 04:06:22;;;;;;;0.98;0.70;;;13.70;86.90;;;;;;5051405;28;20139;-65
2021/12/04 04:08:48;;;;;;;0.90;0.65;;;13.70;86.90;;;;;;5051431;28;20494;-65
2021/12/04 04:11:15;;;;;;;0.90;0.80;;;13.70;86.90;;;;;;5051553;28;20072;-64
2021/12/04 04:13:43;;;;;;;1.38;0.82;;;13.70;86.90;;;;;;5051266;28;20136;-64
2021/12/04 04:16:10;;;;;;;0.88;0.60;;;13.70;86.90;;;;;;5051311;28;20444;-64
2021/12/04 04:18:36;;;;;;;0.80;0.60;;;13.70;86.90;;;;;;5051377;28;20072;-65
2021/12/04 04:21:03;;;;;;;1.02;0.80;;;13.70;86.90;;;;;;5051559;28;20077;-64
2021/12/04 04:23:29;;;;;;;0.93;0.63;;;13.70;86.90;;;;;;5051255;28;20072;-64
2021/12/04 04:25:56;;;;;;;1.48;1.05;;;13.70;86.90;;;;;;5051226;28;20132;-65
2021/12/04 04:28:22;;;;;;;0.63;0.50;;;13.60;86.90;;;;;;5050918;28;20045;-65
2021/12/04 04:30:48;;;;;;;1.05;0.70;;;13.70;86.90;;;;;;5051067;28;20047;-65
2021/12/04 04:33:15;;;;;;;0.70;0.60;;;13.60;86.90;;;;;;5051288;28;20127;-65
2021/12/04 04:35:41;;;;;;;0.57;0.50;;;13.60;86.90;;;;;;5051232;28;20144;-64
2021/12/04 04:38:22;;;;;;;0.98;0.80;;;13.70;86.90;;;;;;5050940;28;20493;-64
2021/12/04 05:00:15;;;;;;;0.80;0.60;;;13.60;86.90;;;;;;4993009;28;20046;-65
2021/12/04 05:11:09;;;;;;;0.70;0.68;;;13.50;87.00;;;;;;5054723;28;20270;-64
2021/12/04 05:13:36;;;;;;;1.13;0.70;;;13.50;87.20;;;;;;5054673;28;20091;-65
2021/12/04 05:16:11;;;;;;;1.05;0.60;;;13.50;87.10;;;;;;5054631;28;20478;-64
2021/12/04 05:18:40;;;;;;;1.40;0.70;;;13.50;87.00;;;;;;5054507;28;20108;-65
2021/12/04 05:21:07;;;;;;;0.70;0.60;;;13.50;87.00;;;;;;5054610;28;20041;-65
2021/12/04 05:23:34;;;;;;;0.80;0.50;;;13.50;86.90;;;;;;5054532;28;20053;-65
2021/12/04 05:26:00;;;;;;;1.00;0.73;;;13.50;87.10;;;;;;5054383;28;20045;-64
2021/12/04 05:28:27;;;;;;;1.02;0.68;;;13.50;87.00;;;;;;5054147;28;20059;-65
2021/12/04 05:30:53;;;;;;;0.98;0.60;;;13.50;87.00;;;;;;5053934;28;20426;-65
2021/12/04 05:33:20;;;;;;;0.50;0.50;;;13.50;87.00;;;;;;5054400;28;20127;-65
2021/12/04 05:35:48;;;;;;;0.88;0.60;;;13.50;87.00;;;;;;5054305;28;20051;-65
2021/12/04 05:38:14;;;;;;;0.70;0.70;;;13.50;87.10;;;;;;5054165;28;20076;-65
2021/12/04 05:40:41;;;;;;;0.80;0.60;;;13.50;87.00;;;;;;5054104;28;20068;-65
2021/12/04 05:43:07;;;;;;;0.57;0.50;;;13.50;87.10;;;;;;5053986;28;20049;-64
2021/12/04 05:45:38;;;;;;;1.20;0.70;;;13.50;87.10;;;;;;5053971;28;20041;-65
2021/12/04 05:48:08;;;;;;;1.00;0.68;;;13.50;87.00;;;;;;5054102;28;20044;-64
2021/12/04 05:53:26;;;;;;;0.85;0.70;;;13.40;87.00;;;;;;5018299;28;20501;-64
2021/12/04 05:55:53;;;;;;;0.52;0.50;;;13.50;87.10;;;;;;5033852;28;20042;-64
2021/12/04 05:58:19;;;;;;;0.73;0.60;;;13.40;87.10;;;;;;5033819;28;20486;-65
2021/12/04 06:00:46;;;;;;;0.68;0.57;;;13.40;87.10;;;;;;5033319;28;20077;-64
2021/12/04 06:03:13;;;;;;;0.65;0.50;;;13.40;87.20;;;;;;5033942;28;20045;-64
2021/12/04 06:05:39;;;;;;;0.80;0.52;;;13.40;87.10;;;;;;5033852;28;20078;-65
2021/12/04 06:08:06;;;;;;;1.10;0.65;;;13.40;87.30;;;;;;5033878;28;20120;-64
2021/12/04 06:10:32;;;;;;;0.85;0.45;;;13.40;87.20;;;;;;5033459;28;20049;-64
2021/12/04 06:12:58;;;;;;;0.73;0.50;;;13.40;87.20;;;;;;5033491;28;20569;-64
2021/12/04 06:15:25;;;;;;;0.90;0.70;;;13.40;87.20;;;;;;5033587;28;20614;-64
2021/12/04 06:17:54;;;;;;;1.05;0.57;;;13.40;87.10;;;;;;5033618;28;20124;-64
2021/12/04 06:23:04;;;;;;;0.50;0.50;;;13.40;87.20;;;;;;5033343;28;20040;-64
2021/12/04 06:25:31;;;;;;;0.70;0.55;;;13.40;87.20;;;;;;5033274;28;20132;-64
2021/12/04 06:27:57;;;;;;;0.47;0.47;;;13.40;87.20;;;;;;5033065;28;20046;-64
2021/12/04 06:30:24;;;;;;;0.68;0.47;;;13.40;87.20;;;;;;5033068;28;20045;-64
2021/12/04 06:32:52;;;;;;;0.82;0.60;;;13.40;87.20;;;;;;5033308;28;20075;-64
2021/12/04 06:35:18;;;;;;;0.57;0.55;;;13.40;87.20;;;;;;5033103;28;20461;-64
2021/12/04 06:37:45;;;;;;;0.75;0.50;;;13.40;87.20;;;;;;5033241;28;20077;-65
2021/12/04 06:40:12;;;;;;;0.50;0.50;;;13.40;87.20;;;;;;5033111;28;20133;-65
2021/12/04 06:42:39;;;;;;;1.02;0.60;;;13.40;87.20;;;;;;5033087;28;20096;-64
2021/12/04 06:45:05;;;;;;;0.63;0.50;;;13.40;87.30;;;;;;5033069;28;20409;-64
2021/12/04 06:47:33;;;;;;;0.52;0.50;;;13.30;87.30;;;;;;5033295;28;20072;-64
2021/12/04 06:50:04;;;;;;;0.55;0.50;;;13.30;87.30;;;;;;5044635;28;20140;-65
2021/12/04 06:52:31;;;;;;;0.82;0.70;;;13.30;87.30;;;;;;5053022;28;20130;-64
2021/12/04 06:54:59;;;;;;;0.68;0.50;;;13.30;87.30;;;;;;5052837;28;20041;-64
2021/12/04 06:57:25;;;;;;;0.70;0.55;;;13.30;87.30;;;;;;5052530;28;20049;-65
2021/12/04 06:59:53;;;;;;;0.90;0.60;;;13.30;87.40;;;;;;5052477;28;20069;-64
2021/12/04 07:02:20;;;;;;;0.80;0.50;;;13.30;87.40;;;;;;5052730;28;20041;-64
2021/12/04 07:04:46;;;;;;;0.98;0.60;;;13.30;87.30;;;;;;5052585;28;20060;-64
2021/12/04 07:07:13;;;;;;;0.75;0.60;;;13.30;87.40;;;;;;5052722;28;20106;-65
2021/12/04 07:09:39;;;;;;;0.40;0.40;;;13.30;87.30;;;;;;5052404;28;20049;-65
2021/12/04 07:12:06;;;;;;;0.68;0.50;;;13.30;87.30;;;;;;5051739;28;20127;-65
2021/12/04 07:14:32;;;;;;;0.50;0.40;;;13.30;87.30;;;;;;5052323;28;20128;-65
2021/12/04 07:17:01;;;;;;;0.75;0.50;;;13.30;87.30;;;;;;5052187;28;20137;-65
2021/12/04 07:19:27;;;;;;;1.05;0.57;;;13.30;87.30;;;;;;5052220;28;20063;-65
2021/12/04 07:21:54;;;;;;;0.65;0.43;;;13.30;87.40;;;;;;5052539;28;20045;-65
2021/12/04 07:24:20;;;;;;;1.05;0.80;;;13.30;87.30;;;;;;5052450;28;20045;-65
2021/12/04 07:26:47;;;;;;;0.80;0.70;;;13.30;87.20;;;;;;5051980;28;20136;-65
2021/12/04 07:29:13;;;;;;;0.40;0.40;;;13.30;87.30;;;;;;5052022;28;20052;-65
2021/12/04 07:31:40;;;;;;;0.68;0.55;;;13.30;87.30;;;;;;5051596;28;20592;-65
2021/12/04 07:34:06;;;;;;;0.77;0.60;;;13.30;87.40;;;;;;5052133;28;20132;-65
2021/12/04 07:36:33;;;;;;;0.60;0.50;;;13.20;87.30;;;;;;5052065;28;20136;-65
2021/12/04 07:38:59;;;;;;;1.00;0.55;;;13.30;87.40;;;;;;5052022;28;20122;-65
2021/12/04 07:41:26;;;;;;;1.45;0.75;;;13.20;87.30;;;;;;5051867;28;20420;-65
2021/12/04 07:43:52;;;;;;;1.13;0.50;;;13.20;87.30;;;;;;5051763;28;20067;-65
2021/12/04 07:46:19;;;;;;;0.60;0.50;;;13.20;87.30;;;;;;5051606;28;20100;-65
2021/12/04 07:48:45;;;;;;;0.50;0.40;;;13.20;87.30;;;;;;5037990;28;20141;-65
2021/12/04 07:51:12;;;;;;;0.52;0.40;;;13.20;87.30;;;;;;5031929;28;20140;-65
2021/12/04 07:53:39;;;;;;;0.95;0.60;;;13.20;87.30;;;;;;5031811;28;20046;-65
2021/12/04 07:56:06;;;;;;;1.25;0.60;;;13.20;87.40;;;;;;5031531;28;20135;-65
2021/12/04 07:58:33;;;;;;;0.60;0.40;;;13.20;87.30;;;;;;5031640;28;20050;-65
2021/12/04 08:00:59;;;;;;;0.50;0.40;;;13.20;87.40;;;;;;5031481;28;20132;-65
2021/12/04 08:03:26;;;;;;;0.60;0.40;;;13.20;87.40;;;;;;5031499;28;20509;-65
2021/12/04 08:05:52;;;;;;;0.52;0.50;;;13.20;87.40;;;;;;5031706;28;20129;-65
2021/12/04 08:08:19;;;;;;;0.75;0.55;;;13.20;87.50;;;;;;5031707;28;20136;-65
2021/12/04 08:10:45;;;;;;;0.80;0.60;;;13.20;87.50;;;;;;5031267;28;20506;-65
2021/12/04 08:13:12;;;;;;;0.95;0.60;;;13.20;87.50;;;;;;5031304;28;20046;-65
2021/12/04 08:15:38;;;;;;;0.65;0.60;;;13.20;87.50;;;;;;5031693;28;20476;-65
2021/12/04 08:18:05;;;;;;;0.70;0.52;;;13.20;87.60;;;;;;5031761;28;20048;-65
2021/12/04 08:20:32;;;;;;;0.52;0.52;;;13.20;87.50;;;;;;5031900;28;20072;-65
2021/12/04 08:22:58;;;;;;;0.50;0.43;;;13.20;87.60;;;;;;5031311;28;20049;-65
2021/12/04 08:25:25;;;;;;;1.00;0.68;;;13.20;87.50;;;;;;5031379;28;20136;-65
2021/12/04 08:27:52;;;;;;;0.95;0.60;;;13.20;87.50;;;;;;5031026;28;20049;-65
2021/12/04 08:30:18;;;;;;;1.20;0.70;;;13.20;87.60;;;;;;5031060;28;20063;-65
2021/12/04 08:32:45;;;;;;;0.77;0.68;;;13.10;87.50;;;;;;5031321;28;20482;-65
2021/12/04 08:35:11;;;;;;;0.90;0.50;;;13.20;87.60;;;;;;5031478;28;20133;-65
2021/12/04 08:37:38;;;;;;;0.90;0.60;;;13.10;87.60;;;;;;5031337;28;20140;-65
2021/12/04 08:40:04;;;;;;;0.80;0.43;;;13.10;87.60;;;;;;5031372;28;20046;-65
2021/12/04 08:42:31;;;;;;;0.85;0.60;;;13.10;87.60;;;;;;5031040;28;20520;-65
2021/12/04 08:44:57;;;;;;;0.57;0.40;;;13.10;87.60;;;;;;5031539;28;20042;-65
2021/12/04 08:47:25;;;;;;;0.65;0.50;;;13.10;87.50;;;;;;5045227;28;20045;-65
2021/12/04 08:49:51;;;;;;;0.93;0.57;;;13.10;87.50;;;;;;5050944;28;20138;-65
2021/12/04 08:52:18;;;;;;;1.10;0.60;;;13.10;87.50;;;;;;5050964;28;20075;-65
2021/12/04 08:54:45;;;;;;;0.70;0.60;;;13.10;87.50;;;;;;5051059;28;20095;-65
2021/12/04 08:57:11;;;;;;;0.95;0.57;;;13.10;87.50;;;;;;5051229;28;20124;-65
2021/12/04 08:59:38;;;;;;;0.60;0.47;;;13.10;87.60;;;;;;5050887;28;20060;-65
2021/12/04 09:02:04;;;;;;;1.10;0.70;;;13.10;87.50;;;;;;5050943;28;20581;-65
2021/12/04 09:04:31;;;;;;;0.60;0.40;;;13.10;87.50;;;;;;5051048;28;20128;-65
2021/12/04 09:06:57;;;;;;;0.55;0.50;;;13.10;87.50;;;;;;5050914;28;20041;-65
2021/12/04 09:09:24;;;;;;;0.77;0.50;;;13.10;87.50;;;;;;5050630;28;20066;-65
2021/12/04 09:11:50;;;;;;;0.60;0.55;;;13.10;87.50;;;;;;5050671;28;20049;-65
2021/12/04 09:14:17;;;;;;;0.57;0.40;;;13.10;87.50;;;;;;5050995;28;20136;-65
2021/12/04 09:16:43;;;;;;;0.90;0.57;;;13.10;87.50;;;;;;5050877;28;20464;-65
2021/12/04 09:19:10;;;;;;;0.77;0.50;;;13.10;87.60;;;;;;5050870;28;20085;-65
2021/12/04 09:21:37;;;;;;;0.50;0.40;;;13.10;87.60;;;;;;5050785;28;20465;-65
2021/12/04 09:24:08;;;;;;;0.70;0.45;;;13.10;87.60;;;;;;5050660;28;20056;-65
2021/12/04 09:26:44;;;;;;;0.55;0.50;;;13.10;87.50;;;;;;5050343;28;20402;-65
2021/12/04 09:29:25;;;;;;;0.80;0.38;;;13.00;87.60;;;;;;5050383;28;20053;-65
2021/12/04 09:34:55;;;;;;;0.75;0.60;;;13.10;87.60;;;;;;5020466;28;20080;-65
2021/12/04 09:59:44;;;;;;;0.90;0.60;;;13.00;87.60;;;;;;5033903;28;20838;-65
2021/12/04 10:02:22;;;;;;;0.70;0.50;;;13.00;87.60;;;;;;5034035;28;20041;-65
2021/12/04 10:05:11;;;;;;;1.02;0.50;;;13.00;87.60;;;;;;5033952;28;20111;-65
2021/12/04 10:13:25;;;;;;;0.50;0.50;;;13.00;87.60;;;;;;5033779;28;20489;-65
2021/12/04 10:16:10;;;;;;;0.50;0.50;;;13.00;87.60;;;;;;5033699;28;20049;-65
2021/12/04 10:32:42;;;;;;;0.80;0.60;;;13.00;87.60;;;;;;5033386;28;20040;-65
2021/12/04 10:35:08;;;;;;;0.50;0.40;;;13.00;87.60;;;;;;5033174;28;20045;-65
2021/12/04 10:37:37;;;;;;;0.60;0.50;;;13.00;87.70;;;;;;5033394;28;20045;-65
2021/12/04 10:40:04;;;;;;;0.60;0.50;;;13.00;87.70;;;;;;5033255;28;20052;-65
2021/12/04 10:42:34;;;;;;;0.55;0.50;;;13.00;87.70;;;;;;5033147;28;20490;-65
2021/12/04 10:45:01;;;;;;;0.52;0.52;;;13.00;87.70;;;;;;5050448;28;20394;-65
2021/12/04 10:47:28;;;;;;;0.80;0.57;;;13.00;87.70;;;;;;5052826;28;20131;-65
2021/12/04 10:50:02;;;;;;;0.60;0.50;;;13.00;88.30;;;;;;5052998;28;20182;-65
2021/12/04 10:52:32;;;;;;;0.63;0.55;;;13.00;87.70;;;;;;5052991;28;20045;-65
2021/12/04 10:54:59;;;;;;;0.70;0.50;;;12.90;87.60;;;;;;5052771;28;20493;-65
2021/12/04 11:00:20;;;;;;;0.85;0.55;;;13.00;87.80;;;;;;4995675;28;20503;-65
2021/12/04 11:02:50;;;;;;;0.63;0.63;;;12.90;87.70;;;;;;5052708;28;20402;-65
2021/12/04 11:05:37;;;;;;;0.63;0.47;;;13.00;87.80;;;;;;5052437;28;20123;-65
2021/12/04 11:19:07;;;;;;;0.73;0.70;;;12.90;87.80;;;;;;5052275;28;20043;-65
2021/12/04 11:24:38;;;;;;;0.85;0.70;;;12.90;87.80;;;;;;5052424;28;20041;-65
2021/12/04 11:38:17;;;;;;;0.70;0.70;;;12.90;87.90;;;;;;5051647;28;20052;-65
2021/12/04 11:43:38;;;;;;;1.00;0.80;;;12.90;87.90;;;;;;5013969;28;20463;-65
2021/12/04 11:46:18;;;;;;;1.17;0.88;;;12.90;87.90;;;;;;5032370;28;20096;-65
2021/12/04 11:48:44;;;;;;;0.93;0.90;;;12.90;87.90;;;;;;5032099;28;20049;-65
2021/12/04 11:51:11;;;;;;;1.15;0.82;;;12.90;87.90;;;;;;5031951;28;20132;-65
2021/12/04 11:53:37;;;;;;;1.67;1.10;;;12.90;88.00;;;;;;5031904;28;20212;-65
2021/12/04 11:56:04;;;;;;;0.88;0.63;;;12.90;87.90;;;;;;5031645;28;20056;-65
2021/12/04 11:58:31;;;;;;;1.02;0.77;;;12.90;87.90;;;;;;5031146;28;20092;-65
2021/12/04 12:00:58;;;;;;;1.40;0.80;;;12.90;87.90;;;;;;5031626;28;20061;-65
2021/12/04 12:03:24;;;;;;;0.80;0.80;;;12.90;88.00;;;;;;5031763;28;20057;-65
2021/12/04 12:05:51;;;;;;;1.20;0.80;;;12.90;88.00;;;;;;5031654;28;20053;-65
2021/12/04 12:08:17;;;;;;;1.40;0.98;;;12.90;88.00;;;;;;5031580;28;20050;-65
2021/12/04 12:10:44;;;;;;;1.00;0.93;;;12.90;88.00;;;;;;5031218;28;20071;-65
2021/12/04 12:13:17;;;;;;;1.48;1.15;;;12.90;88.00;;;;;;5031483;28;20045;-65
2021/12/04 12:15:47;;;;;;;1.55;1.00;;;12.80;88.00;;;;;;5031411;28;20072;-65
2021/12/04 12:18:13;;;;;;;1.20;1.08;;;12.80;87.90;;;;;;5031417;28;20045;-65
2021/12/04 12:20:44;;;;;;;1.08;0.98;;;12.80;87.90;;;;;;5031516;28;20138;-65
2021/12/04 12:23:11;;;;;;;1.25;1.00;;;12.80;88.00;;;;;;5031228;28;20494;-65
2021/12/04 12:25:51;;;;;;;1.48;1.20;;;12.80;88.00;;;;;;5031273;28;20116;-65
2021/12/04 12:33:57;;;;;;;1.45;1.35;;;12.80;87.90;;;;;;5031160;28;20052;-65
2021/12/04 12:36:23;;;;;;;1.25;1.15;;;12.80;88.00;;;;;;5031605;28;20107;-65
2021/12/04 12:38:50;;;;;;;1.25;1.10;;;12.80;88.00;;;;;;5031456;28;20049;-65
2021/12/04 12:41:17;;;;;;;1.60;1.50;;;12.80;88.00;;;;;;5041034;28;20041;-65
2021/12/04 12:43:43;;;;;;;1.85;1.17;;;12.80;88.10;;;;;;5051101;28;20131;-65
2021/12/04 12:46:10;;;;;;;1.42;1.27;;;12.80;88.10;;;;;;5051027;28;20045;-65
2021/12/04 12:48:36;;;;;;;1.67;1.58;;;12.80;88.10;;;;;;5050935;28;20500;-65
2021/12/04 12:51:03;;;;;;;1.67;1.30;;;12.80;88.10;;;;;;5051093;28;20136;-65
2021/12/04 12:53:30;;;;;;;1.55;1.40;;;12.80;88.70;;;;;;5051174;28;20045;-65
2021/12/04 12:55:57;;;;;;;1.85;1.48;;;12.80;88.10;;;;;;5051187;28;20045;-65
2021/12/04 12:58:24;;;;;;;1.50;1.40;;;12.80;88.10;;;;;;5050762;28;20049;-65
2021/12/04 13:11:46;;;;;;;2.15;1.70;;;12.80;88.30;;;;;;5054687;28;20105;-65
2021/12/04 13:14:13;;;;;;;1.88;1.77;;;12.80;88.20;;;;;;5054850;28;20060;-65
2021/12/04 13:16:41;;;;;;;2.47;1.73;;;12.80;88.20;;;;;;5054561;28;20088;-65
2021/12/04 13:19:10;;;;;;;2.13;1.75;;;12.80;88.30;;;;;;5054640;28;20055;-65
2021/12/04 13:21:38;;;;;;;2.33;1.92;;;12.80;88.20;;;;;;5054395;28;20045;-65
2021/12/04 13:24:04;;;;;;;1.80;1.70;;;12.80;88.20;;;;;;5054701;28;20488;-65
2021/12/04 13:26:31;;;;;;;2.50;2.00;;;12.80;88.10;;;;;;5054795;28;20071;-65
2021/12/04 13:28:59;;;;;;;2.30;2.05;;;12.80;88.10;;;;;;5054266;28;20091;-65
2021/12/04 13:31:25;;;;;;;2.20;2.00;;;12.80;88.10;;;;;;5053995;28;20136;-65
2021/12/04 13:33:52;;;;;;;2.03;1.83;;;12.80;88.20;;;;;;5054148;28;20087;-65
2021/12/04 13:36:18;;;;;;;2.20;2.00;;;12.80;88.30;;;;;;5054135;28;20076;-65
2021/12/04 13:38:45;;;;;;;2.00;1.80;;;12.80;88.40;;;;;;5053547;28;20085;-65
2021/12/04 13:41:11;;;;;;;2.00;1.80;;;12.80;88.30;;;;;;5034138;28;20423;-64
2021/12/04 13:43:38;;;;;;;1.95;1.83;;;12.80;88.20;;;;;;5034492;28;20085;-65
2021/12/04 13:46:04;;;;;;;2.20;1.90;;;12.80;88.20;;;;;;5034357;28;20115;-65
2021/12/04 13:48:31;;;;;;;2.10;1.90;;;12.80;88.10;;;;;;5034205;28;20445;-65
2021/12/04 13:50:59;;;;;;;2.28;2.00;;;12.80;88.10;;;;;;5034007;28;20051;-65
2021/12/04 13:53:26;;;;;;;2.35;2.05;;;12.80;88.00;;;;;;5034184;28;20080;-65
2021/12/04 13:55:52;;;;;;;2.40;2.20;;;12.80;88.00;;;;;;5033940;28;20056;-65
2021/12/04 13:58:19;;;;;;;2.08;1.88;;;12.80;88.50;;;;;;5033770;28;20060;-65
2021/12/04 14:00:45;;;;;;;2.50;2.30;;;12.80;87.90;;;;;;5033525;28;20490;-65
2021/12/04 14:03:12;;;;;;;3.28;2.42;;;12.80;88.00;;;;;;5034253;28;20124;-65
2021/12/04 14:05:38;;;;;;;2.92;2.22;;;12.80;88.20;;;;;;5034165;28;20045;-65
2021/12/04 14:08:05;;;;;;;2.55;2.25;;;12.80;88.80;;;;;;5033903;28;20048;-65
2021/12/04 14:10:32;;;;;;;2.20;2.00;;;12.80;88.20;;;;;;5033724;28;20046;-65
2021/12/04 14:12:58;;;;;;;3.28;2.38;;;12.80;88.10;;;;;;5033624;28;20085;-65
2021/12/04 14:15:25;;;;;;;3.13;2.30;;;12.80;88.00;;;;;;5033563;28;20508;-65
2021/12/04 14:17:51;;;;;;;3.08;2.47;;;12.80;88.00;;;;;;5033577;28;20200;-65
2021/12/04 14:20:17;;;;;;;2.72;2.20;;;12.80;88.00;;;;;;5033635;28;20129;-65
2021/12/04 14:22:44;;;;;;;2.80;2.33;;;12.80;87.90;;;;;;5033604;28;20545;-65
2021/12/04 14:25:10;;;;;;;2.35;1.98;;;12.80;88.00;;;;;;5033470;28;20128;-65
2021/12/04 14:27:37;;;;;;;2.60;2.25;;;12.80;87.90;;;;;;5033241;28;20057;-65
2021/12/04 14:30:04;;;;;;;2.55;2.30;;;12.80;87.90;;;;;;5033080;28;20120;-65
2021/12/04 14:32:30;;;;;;;3.58;2.80;;;12.80;88.00;;;;;;5033099;28;20144;-65
2021/12/04 14:34:57;;;;;;;2.50;2.13;;;12.80;88.10;;;;;;5033234;28;20522;-65
2021/12/04 14:37:23;;;;;;;2.50;2.30;;;12.80;88.10;;;;;;5034108;28;20120;-65
2021/12/04 14:39:50;;;;;;;2.92;2.40;;;12.80;88.00;;;;;;5053387;28;20144;-65
2021/12/04 14:42:16;;;;;;;2.65;2.45;;;12.80;87.90;;;;;;5053210;28;20045;-65
2021/12/04 14:44:43;;;;;;;2.75;2.35;;;12.80;87.90;;;;;;5052792;28;20072;-65
2021/12/04 14:47:09;;;;;;;3.28;2.42;;;12.80;87.90;;;;;;5052873;28;20045;-65
2021/12/04 14:49:37;;;;;;;3.15;2.50;;;12.80;87.90;;;;;;5053198;28;20091;-65
2021/12/04 14:52:04;;;;;;;2.88;2.58;;;12.80;87.80;;;;;;5052996;28;20390;-65
2021/12/04 14:54:32;;;;;;;3.33;2.60;;;12.80;87.80;;;;;;5052971;28;20128;-65
2021/12/04 14:56:59;;;;;;;3.08;2.40;;;12.80;87.80;;;;;;5052965;28;20041;-65
2021/12/04 14:59:25;;;;;;;2.95;2.42;;;12.80;87.90;;;;;;5052610;28;20048;-65
2021/12/04 15:01:52;;;;;;;4.13;2.45;;;12.80;88.00;;;;;;5052625;28;20072;-65
2021/12/04 15:04:18;;;;;;;3.00;2.30;;;12.80;88.10;;;;;;5052764;28;20059;-65
2021/12/04 15:06:45;;;;;;;2.75;2.35;;;12.80;88.00;;;;;;5052475;28;20132;-65
2021/12/04 15:09:11;;;;;;;3.65;2.60;;;12.80;88.00;;;;;;5052528;28;20592;-65
2021/12/04 15:11:38;;;;;;;3.25;2.60;;;12.80;87.90;;;;;;5052366;28;20084;-65
2021/12/04 15:14:07;;;;;;;3.53;2.47;;;12.80;87.90;;;;;;5052429;28;20084;-65